sensor_id;sensor_type;location;lat;lon;timestamp;pressure;altitude;pressure_sealevel;temperature;humidity
59729;BME280;45588;51.598;5.618;2022-08-18T00:01:17;101157.97;;;18.35;100.00
59729;BME280;45588;51.598;5.618;2022-08-18T00:03:44;101141.25;;;18.32;100.00
59729;BME280;45588;51.598;5.618;2022-08-18T00:06:10;101146.50;;;18.36;100.00
59729;BME280;45588;51.598;5.618;2022-08-18T00:08:35;101137.72;;;18.36;100.00
59729;BME280;45588;51.598;5.618;2022-08-18T00:11:00;101149.16;;;18.36;100.00
59729;BME280;45588;51.598;5.618;2022-08-18T00:13:26;101150.91;;;18.39;100.00
59729;BME280;45588;51.598;5.618;2022-08-18T00:15:51;101150.91;;;18.37;100.00
59729;BME280;45588;51.598;5.618;2022-08-18T00:18:17;101155.31;;;18.37;100.00
59729;BME280;45588;51.598;5.618;2022-08-18T00:20:42;101159.69;;;18.36;100.00
59729;BME280;45588;51.598;5.618;2022-08-18T00:23:07;101149.16;;;18.40;100.00
59729;BME280;45588;51.598;5.618;2022-08-18T00:25:33;101154.44;;;18.40;100.00
59729;BME280;45588;51.598;5.618;2022-08-18T00:27:58;101163.19;;;18.42;100.00
59729;BME280;45588;51.598;5.618;2022-08-18T00:30:24;101159.69;;;18.43;100.00
59729;BME280;45588;51.598;5.618;2022-08-18T00:32:53;101148.25;;;18.41;100.00
59729;BME280;45588;51.598;5.618;2022-08-18T00:35:26;101150.00;;;18.46;100.00
59729;BME280;45588;51.598;5.618;2022-08-18T00:37:52;101150.88;;;18.45;100.00
59729;BME280;45588;51.598;5.618;2022-08-18T00:40:22;101160.53;;;18.46;100.00
59729;BME280;45588;51.598;5.618;2022-08-18T00:42:54;101161.44;;;18.44;100.00
59729;BME280;45588;51.598;5.618;2022-08-18T00:45:26;101174.59;;;18.47;100.00
59729;BME280;45588;51.598;5.618;2022-08-18T00:47:51;101173.75;;;18.45;100.00
59729;BME280;45588;51.598;5.618;2022-08-18T00:50:28;101178.13;;;18.44;100.00
59729;BME280;45588;51.598;5.618;2022-08-18T00:52:59;101178.16;;;18.43;100.00
59729;BME280;45588;51.598;5.618;2022-08-18T00:55:27;101178.16;;;18.43;100.00
59729;BME280;45588;51.598;5.618;2022-08-18T00:58:01;101173.75;;;18.42;100.00
59729;BME280;45588;51.598;5.618;2022-08-18T01:00:27;101183.41;;;18.44;100.00
59729;BME280;45588;51.598;5.618;2022-08-18T01:02:55;101178.13;;;18.46;100.00
59729;BME280;45588;51.598;5.618;2022-08-18T01:05:27;101178.13;;;18.46;100.00
59729;BME280;45588;51.598;5.618;2022-08-18T01:07:54;101177.25;;;18.45;100.00
59729;BME280;45588;51.598;5.618;2022-08-18T01:10:21;101186.94;;;18.42;100.00
59729;BME280;45588;51.598;5.618;2022-08-18T01:12:55;101177.28;;;18.36;100.00
59729;BME280;45588;51.598;5.618;2022-08-18T01:15:22;101179.94;;;18.34;100.00
59729;BME280;45588;51.598;5.618;2022-08-18T01:17:48;101174.69;;;18.28;100.00
59729;BME280;45588;51.598;5.618;2022-08-18T01:20:35;101171.16;;;18.22;100.00
59729;BME280;45588;51.598;5.618;2022-08-18T01:23:21;101167.66;;;18.24;100.00
59729;BME280;45588;51.598;5.618;2022-08-18T01:25:48;101167.66;;;18.21;100.00
59729;BME280;45588;51.598;5.618;2022-08-18T01:28:38;101173.81;;;18.23;100.00
59729;BME280;45588;51.598;5.618;2022-08-18T01:31:04;101183.53;;;18.10;100.00
59729;BME280;45588;51.598;5.618;2022-08-18T01:33:37;101174.72;;;18.11;100.00
59729;BME280;45588;51.598;5.618;2022-08-18T01:36:14;101172.09;;;18.11;100.00
59729;BME280;45588;51.598;5.618;2022-08-18T01:38:45;101173.84;;;18.11;100.00
59729;BME280;45588;51.598;5.618;2022-08-18T01:41:10;101166.84;;;18.10;100.00
59729;BME280;45588;51.598;5.618;2022-08-18T01:43:37;101166.84;;;18.04;100.00
59729;BME280;45588;51.598;5.618;2022-08-18T01:46:03;101173.84;;;18.06;100.00
59729;BME280;45588;51.598;5.618;2022-08-18T01:48:35;101175.66;;;18.04;100.00
59729;BME280;45588;51.598;5.618;2022-08-18T01:51:07;101176.50;;;18.06;100.00
59729;BME280;45588;51.598;5.618;2022-08-18T01:53:34;101179.13;;;18.06;100.00
59729;BME280;45588;51.598;5.618;2022-08-18T01:56:00;101166.84;;;18.02;100.00
59729;BME280;45588;51.598;5.618;2022-08-18T01:58:28;101171.25;;;18.05;100.00
59729;BME280;45588;51.598;5.618;2022-08-18T02:00:54;101158.06;;;18.00;100.00
59729;BME280;45588;51.598;5.618;2022-08-18T02:03:30;101165.09;;;17.98;100.00
59729;BME280;45588;51.598;5.618;2022-08-18T02:06:00;101172.13;;;17.99;100.00
59729;BME280;45588;51.598;5.618;2022-08-18T02:08:27;101165.09;;;17.97;100.00
59729;BME280;45588;51.598;5.618;2022-08-18T02:10:52;101158.97;;;17.94;100.00
59729;BME280;45588;51.598;5.618;2022-08-18T02:13:17;101153.69;;;17.88;100.00
59729;BME280;45588;51.598;5.618;2022-08-18T02:15:43;101161.59;;;17.88;100.00
59729;BME280;45588;51.598;5.618;2022-08-18T02:18:24;101166.00;;;17.85;100.00
59729;BME280;45588;51.598;5.618;2022-08-18T02:20:52;101158.06;;;17.79;100.00
59729;BME280;45588;51.598;5.618;2022-08-18T02:23:17;101165.97;;;17.76;100.00
59729;BME280;45588;51.598;5.618;2022-08-18T02:25:42;101172.16;;;17.74;100.00
59729;BME280;45588;51.598;5.618;2022-08-18T02:28:08;101172.16;;;17.67;100.00
59729;BME280;45588;51.598;5.618;2022-08-18T02:30:34;101173.03;;;17.67;100.00
59729;BME280;45588;51.598;5.618;2022-08-18T02:33:05;101178.28;;;17.61;100.00
59729;BME280;45588;51.598;5.618;2022-08-18T02:35:31;101174.78;;;17.58;100.00
59729;BME280;45588;51.598;5.618;2022-08-18T02:38:03;101173.03;;;17.52;100.00
59729;BME280;45588;51.598;5.618;2022-08-18T02:40:28;101171.28;;;17.49;100.00
59729;BME280;45588;51.598;5.618;2022-08-18T02:42:54;101173.91;;;17.48;100.00
59729;BME280;45588;51.598;5.618;2022-08-18T02:45:21;101175.69;;;17.41;100.00
59729;BME280;45588;51.598;5.618;2022-08-18T02:47:54;101181.81;;;17.39;100.00
59729;BME280;45588;51.598;5.618;2022-08-18T02:50:21;101180.91;;;17.34;100.00
59729;BME280;45588;51.598;5.618;2022-08-18T02:52:47;101180.06;;;17.32;100.00
59729;BME280;45588;51.598;5.618;2022-08-18T02:55:12;101180.03;;;17.25;100.00
59729;BME280;45588;51.598;5.618;2022-08-18T02:57:43;101192.31;;;17.20;100.00
59729;BME280;45588;51.598;5.618;2022-08-18T03:00:11;101191.44;;;17.15;100.00
59729;BME280;45588;51.598;5.618;2022-08-18T03:02:38;101194.94;;;17.13;100.00
59729;BME280;45588;51.598;5.618;2022-08-18T03:05:05;101187.03;;;17.09;100.00
59729;BME280;45588;51.598;5.618;2022-08-18T03:07:31;101192.28;;;17.08;100.00
59729;BME280;45588;51.598;5.618;2022-08-18T03:09:56;101193.19;;;17.07;100.00
59729;BME280;45588;51.598;5.618;2022-08-18T03:12:21;101187.91;;;16.99;100.00
59729;BME280;45588;51.598;5.618;2022-08-18T03:14:47;101183.50;;;16.89;100.00
59729;BME280;45588;51.598;5.618;2022-08-18T03:17:12;101186.97;;;16.85;100.00
59729;BME280;45588;51.598;5.618;2022-08-18T03:19:39;101189.63;;;16.82;100.00
59729;BME280;45588;51.598;5.618;2022-08-18T03:22:07;101187.88;;;16.81;100.00
59729;BME280;45588;51.598;5.618;2022-08-18T03:24:33;101194.00;;;16.81;100.00
59729;BME280;45588;51.598;5.618;2022-08-18T03:27:00;101196.63;;;16.83;100.00
59729;BME280;45588;51.598;5.618;2022-08-18T03:29:28;101191.38;;;16.78;100.00
59729;BME280;45588;51.598;5.618;2022-08-18T03:31:53;101187.81;;;16.76;100.00
59729;BME280;45588;51.598;5.618;2022-08-18T03:34:19;101190.47;;;16.78;100.00
59729;BME280;45588;51.598;5.618;2022-08-18T03:36:45;101188.75;;;16.78;100.00
59729;BME280;45588;51.598;5.618;2022-08-18T03:39:11;101186.94;;;16.76;100.00
59729;BME280;45588;51.598;5.618;2022-08-18T03:41:41;101191.31;;;16.74;100.00
59729;BME280;45588;51.598;5.618;2022-08-18T03:44:08;101194.81;;;16.70;100.00
59729;BME280;45588;51.598;5.618;2022-08-18T03:46:34;101200.06;;;16.73;100.00
59729;BME280;45588;51.598;5.618;2022-08-18T03:49:00;101197.44;;;16.73;100.00
59729;BME280;45588;51.598;5.618;2022-08-18T03:51:28;101193.06;;;16.75;100.00
59729;BME280;45588;51.598;5.618;2022-08-18T03:53:56;101193.06;;;16.76;100.00
59729;BME280;45588;51.598;5.618;2022-08-18T03:56:26;101189.56;;;16.77;100.00
59729;BME280;45588;51.598;5.618;2022-08-18T03:58:57;101190.44;;;16.75;100.00
59729;BME280;45588;51.598;5.618;2022-08-18T04:01:25;101184.34;;;16.79;100.00
59729;BME280;45588;51.598;5.618;2022-08-18T04:03:56;101182.59;;;16.79;100.00
59729;BME280;45588;51.598;5.618;2022-08-18T04:06:25;101178.22;;;16.81;100.00
59729;BME280;45588;51.598;5.618;2022-08-18T04:08:53;101178.16;;;16.77;100.00
59729;BME280;45588;51.598;5.618;2022-08-18T04:11:19;101184.34;;;16.82;100.00
59729;BME280;45588;51.598;5.618;2022-08-18T04:13:44;101184.34;;;16.85;100.00
59729;BME280;45588;51.598;5.618;2022-08-18T04:16:10;101185.25;;;16.89;100.00
59729;BME280;45588;51.598;5.618;2022-08-18T04:18:36;101184.38;;;16.90;100.00
59729;BME280;45588;51.598;5.618;2022-08-18T04:21:03;101194.91;;;16.93;100.00
59729;BME280;45588;51.598;5.618;2022-08-18T04:23:29;101184.38;;;16.94;100.00
59729;BME280;45588;51.598;5.618;2022-08-18T04:25:59;101187.03;;;16.94;100.00
59729;BME280;45588;51.598;5.618;2022-08-18T04:28:26;101199.28;;;16.98;100.00
59729;BME280;45588;51.598;5.618;2022-08-18T04:30:52;101201.94;;;17.00;100.00
59729;BME280;45588;51.598;5.618;2022-08-18T04:33:19;101196.69;;;17.01;100.00
59729;BME280;45588;51.598;5.618;2022-08-18T04:35:44;101194.06;;;17.01;100.00
59729;BME280;45588;51.598;5.618;2022-08-18T04:38:11;101190.53;;;17.02;100.00
59729;BME280;45588;51.598;5.618;2022-08-18T04:40:37;101194.06;;;17.06;100.00
59729;BME280;45588;51.598;5.618;2022-08-18T04:43:03;101194.06;;;17.04;100.00
59729;BME280;45588;51.598;5.618;2022-08-18T04:45:28;101193.19;;;17.07;100.00
59729;BME280;45588;51.598;5.618;2022-08-18T04:47:54;101193.19;;;17.12;100.00
59729;BME280;45588;51.598;5.618;2022-08-18T04:50:20;101200.22;;;17.14;100.00
59729;BME280;45588;51.598;5.618;2022-08-18T04:52:45;101197.59;;;17.14;100.00
59729;BME280;45588;51.598;5.618;2022-08-18T04:55:29;101207.25;;;17.17;100.00
59729;BME280;45588;51.598;5.618;2022-08-18T04:57:55;101206.34;;;17.18;100.00
59729;BME280;45588;51.598;5.618;2022-08-18T05:00:20;101205.50;;;17.22;100.00
59729;BME280;45588;51.598;5.618;2022-08-18T05:02:46;101208.09;;;17.23;100.00
59729;BME280;45588;51.598;5.618;2022-08-18T05:05:11;101208.09;;;17.23;100.00
59729;BME280;45588;51.598;5.618;2022-08-18T05:07:42;101216.03;;;17.26;100.00
59729;BME280;45588;51.598;5.618;2022-08-18T05:10:09;101204.59;;;17.26;100.00
59729;BME280;45588;51.598;5.618;2022-08-18T05:12:34;101216.91;;;17.32;100.00
59729;BME280;45588;51.598;5.618;2022-08-18T05:15:00;101218.69;;;17.34;100.00
59729;BME280;45588;51.598;5.618;2022-08-18T05:17:25;101218.66;;;17.31;100.00
59729;BME280;45588;51.598;5.618;2022-08-18T05:19:52;101212.53;;;17.32;100.00
59729;BME280;45588;51.598;5.618;2022-08-18T05:22:18;101213.41;;;17.33;100.00
59729;BME280;45588;51.598;5.618;2022-08-18T05:24:45;101204.63;;;17.30;100.00
59729;BME280;45588;51.598;5.618;2022-08-18T05:27:11;101203.75;;;17.30;100.00
59729;BME280;45588;51.598;5.618;2022-08-18T05:29:37;101217.81;;;17.37;100.00
59729;BME280;45588;51.598;5.618;2022-08-18T05:32:03;101216.03;;;17.37;100.00
59729;BME280;45588;51.598;5.618;2022-08-18T05:34:32;101223.94;;;17.48;100.00
59729;BME280;45588;51.598;5.618;2022-08-18T05:37:04;101220.44;;;17.50;100.00
59729;BME280;45588;51.598;5.618;2022-08-18T05:39:48;101216.94;;;17.50;100.00
59729;BME280;45588;51.598;5.618;2022-08-18T05:42:19;101227.47;;;17.51;100.00
59729;BME280;45588;51.598;5.618;2022-08-18T05:44:48;101225.69;;;17.55;100.00
59729;BME280;45588;51.598;5.618;2022-08-18T05:47:16;101229.22;;;17.56;100.00
59729;BME280;45588;51.598;5.618;2022-08-18T05:49:45;101221.31;;;17.63;100.00
59729;BME280;45588;51.598;5.618;2022-08-18T05:52:20;101235.34;;;17.68;100.00
59729;BME280;45588;51.598;5.618;2022-08-18T05:54:55;101228.34;;;17.69;100.00
59729;BME280;45588;51.598;5.618;2022-08-18T05:57:46;101233.59;;;17.78;100.00
59729;BME280;45588;51.598;5.618;2022-08-18T06:00:16;101229.25;;;17.80;100.00
59729;BME280;45588;51.598;5.618;2022-08-18T06:03:01;101231.88;;;17.86;100.00
59729;BME280;45588;51.598;5.618;2022-08-18T06:05:50;101231.00;;;17.92;100.00
59729;BME280;45588;51.598;5.618;2022-08-18T06:08:17;101238.03;;;17.94;100.00
59729;BME280;45588;51.598;5.618;2022-08-18T06:10:47;101238.00;;;18.01;100.00
59729;BME280;45588;51.598;5.618;2022-08-18T06:13:13;101236.25;;;18.07;100.00
59729;BME280;45588;51.598;5.618;2022-08-18T06:15:53;101231.84;;;18.17;100.00
59729;BME280;45588;51.598;5.618;2022-08-18T06:21:31;101243.22;;;18.27;100.00
59729;BME280;45588;51.598;5.618;2022-08-18T06:24:15;101243.25;;;18.30;100.00
59729;BME280;45588;51.598;5.618;2022-08-18T06:26:58;101250.22;;;18.38;100.00
59729;BME280;45588;51.598;5.618;2022-08-18T06:29:52;101249.34;;;18.47;100.00
59729;BME280;45588;51.598;5.618;2022-08-18T06:41:02;101258.06;;;18.66;100.00
59729;BME280;45588;51.598;5.618;2022-08-18T06:43:28;101259.78;;;18.72;100.00
59729;BME280;45588;51.598;5.618;2022-08-18T06:45:56;101267.72;;;18.76;100.00
59729;BME280;45588;51.598;5.618;2022-08-18T06:48:31;101273.00;;;18.70;100.00
59729;BME280;45588;51.598;5.618;2022-08-18T06:51:02;101267.72;;;18.72;100.00
59729;BME280;45588;51.598;5.618;2022-08-18T06:53:54;101259.78;;;18.86;100.00
59729;BME280;45588;51.598;5.618;2022-08-18T06:56:27;101268.50;;;18.98;100.00
59729;BME280;45588;51.598;5.618;2022-08-18T06:59:18;101264.06;;;19.08;100.00
59729;BME280;45588;51.598;5.618;2022-08-18T07:01:46;101252.69;;;18.98;100.00
59729;BME280;45588;51.598;5.618;2022-08-18T07:04:30;101260.44;;;19.24;100.00
59729;BME280;45588;51.598;5.618;2022-08-18T07:06:56;101264.03;;;19.16;100.00
59729;BME280;45588;51.598;5.618;2022-08-18T07:09:24;101266.59;;;19.28;100.00
59729;BME280;45588;51.598;5.618;2022-08-18T07:11:59;101273.66;;;19.24;100.00
59729;BME280;45588;51.598;5.618;2022-08-18T07:14:25;101279.03;;;19.11;100.00
59729;BME280;45588;51.598;5.618;2022-08-18T07:17:13;101279.94;;;19.03;100.00
59729;BME280;45588;51.598;5.618;2022-08-18T07:19:53;101274.72;;;18.88;100.00
59729;BME280;45588;51.598;5.618;2022-08-18T07:22:19;101274.59;;;19.11;100.00
59729;BME280;45588;51.598;5.618;2022-08-18T07:24:52;101269.22;;;19.31;100.00
59729;BME280;45588;51.598;5.618;2022-08-18T07:27:41;101264.69;;;19.47;100.00
59729;BME280;45588;51.598;5.618;2022-08-18T07:30:08;101275.25;;;19.50;100.00
59729;BME280;45588;51.598;5.618;2022-08-18T07:32:39;101271.78;;;19.43;100.00
59729;BME280;45588;51.598;5.618;2022-08-18T07:35:09;101267.28;;;19.55;100.00
59729;BME280;45588;51.598;5.618;2022-08-18T07:40:19;101268.09;;;19.64;100.00
59729;BME280;45588;51.598;5.618;2022-08-18T07:42:51;101269.81;;;19.76;100.00
59729;BME280;45588;51.598;5.618;2022-08-18T07:45:24;101277.84;;;19.55;100.00
59729;BME280;45588;51.598;5.618;2022-08-18T07:47:56;101276.13;;;19.54;100.00
59729;BME280;45588;51.598;5.618;2022-08-18T07:50:24;101276.75;;;19.91;100.00
59729;BME280;45588;51.598;5.618;2022-08-18T07:56:04;101268.44;;;20.31;100.00
59729;BME280;45588;51.598;5.618;2022-08-18T07:58:36;101268.47;;;20.25;100.00
59729;BME280;45588;51.598;5.618;2022-08-18T08:01:17;101269.25;;;20.33;100.00
59729;BME280;45588;51.598;5.618;2022-08-18T08:06:47;101257.94;;;20.20;100.00
59729;BME280;45588;51.598;5.618;2022-08-18T08:09:24;101264.97;;;20.23;100.00
59729;BME280;45588;51.598;5.618;2022-08-18T08:12:40;101273.09;;;20.06;100.00
59729;BME280;45588;51.598;5.618;2022-08-18T08:14:47;101273.09;;;20.04;100.00
59729;BME280;45588;51.598;5.618;2022-08-18T08:20:26;101272.91;;;20.23;100.00
59729;BME280;45588;51.598;5.618;2022-08-18T08:25:30;101279.72;;;20.47;100.00
59729;BME280;45588;51.598;5.618;2022-08-18T08:33:39;101274.81;;;20.89;100.00
59729;BME280;45588;51.598;5.618;2022-08-18T08:36:18;101281.69;;;21.04;100.00
59729;BME280;45588;51.598;5.618;2022-08-18T08:38:53;101276.84;;;21.39;100.00
59729;BME280;45588;51.598;5.618;2022-08-18T08:41:30;101277.78;;;21.32;100.00
59729;BME280;45588;51.598;5.618;2022-08-18T08:44:14;101274.13;;;21.43;100.00
59729;BME280;45588;51.598;5.618;2022-08-18T08:49:24;101281.59;;;21.11;100.00
59729;BME280;45588;51.598;5.618;2022-08-18T08:51:55;101282.94;;;20.77;100.00
59729;BME280;45588;51.598;5.618;2022-08-18T08:54:23;101293.75;;;21.28;100.00
59729;BME280;45588;51.598;5.618;2022-08-18T08:56:53;101291.75;;;21.45;100.00
59729;BME280;45588;51.598;5.618;2022-08-18T08:59:21;101296.88;;;21.56;100.00
59729;BME280;45588;51.598;5.618;2022-08-18T09:02:06;101294.53;;;21.93;100.00
59729;BME280;45588;51.598;5.618;2022-08-18T09:07:55;101285.38;;;22.11;100.00
59729;BME280;45588;51.598;5.618;2022-08-18T09:10:43;101285.50;;;22.03;100.00
59729;BME280;45588;51.598;5.618;2022-08-18T09:13:37;101284.91;;;21.86;100.00
59729;BME280;45588;51.598;5.618;2022-08-18T09:19:07;101292.81;;;21.89;100.00
59729;BME280;45588;51.598;5.618;2022-08-18T09:22:17;101293.47;;;22.02;100.00
59729;BME280;45588;51.598;5.618;2022-08-18T09:24:49;101284.44;;;22.15;100.00
59729;BME280;45588;51.598;5.618;2022-08-18T09:27:31;101294.00;;;22.24;100.00
59729;BME280;45588;51.598;5.618;2022-08-18T09:35:11;101285.19;;;22.23;100.00
59729;BME280;45588;51.598;5.618;2022-08-18T09:37:46;101278.28;;;22.12;100.00
59729;BME280;45588;51.598;5.618;2022-08-18T09:40:34;101270.50;;;22.02;100.00
59729;BME280;45588;51.598;5.618;2022-08-18T09:44:04;101278.13;;;22.22;100.00
59729;BME280;45588;51.598;5.618;2022-08-18T09:51:53;101275.63;;;22.13;100.00
59729;BME280;45588;51.598;5.618;2022-08-18T09:54:24;101282.53;;;22.23;100.00
59729;BME280;45588;51.598;5.618;2022-08-18T10:02:00;101289.28;;;22.40;100.00
59729;BME280;45588;51.598;5.618;2022-08-18T10:04:34;101283.19;;;22.35;100.00
59729;BME280;45588;51.598;5.618;2022-08-18T10:09:58;101289.06;;;22.52;100.00
59729;BME280;45588;51.598;5.618;2022-08-18T10:12:31;101279.97;;;22.65;100.00
59729;BME280;45588;51.598;5.618;2022-08-18T10:15:18;101288.88;;;22.61;100.00
59729;BME280;45588;51.598;5.618;2022-08-18T10:20:48;101279.03;;;22.68;99.57
59729;BME280;45588;51.598;5.618;2022-08-18T10:23:55;101278.91;;;22.73;100.00
59729;BME280;45588;51.598;5.618;2022-08-18T10:29:42;101278.03;;;22.72;100.00
59729;BME280;45588;51.598;5.618;2022-08-18T10:37:14;101273.44;;;22.80;100.00
59729;BME280;45588;51.598;5.618;2022-08-18T10:39:49;101264.53;;;22.83;100.00
59729;BME280;45588;51.598;5.618;2022-08-18T10:42:24;101258.94;;;23.39;99.82
59729;BME280;45588;51.598;5.618;2022-08-18T10:45:02;101259.22;;;23.62;100.00
59729;BME280;45588;51.598;5.618;2022-08-18T10:47:30;101257.53;;;24.30;100.00
59729;BME280;45588;51.598;5.618;2022-08-18T10:49:57;101270.44;;;24.44;96.84
59729;BME280;45588;51.598;5.618;2022-08-18T10:52:34;101265.53;;;24.28;90.02
59729;BME280;45588;51.598;5.618;2022-08-18T10:55:18;101266.06;;;24.08;87.58
59729;BME280;45588;51.598;5.618;2022-08-18T11:01:15;101269.44;;;24.15;93.19
59729;BME280;45588;51.598;5.618;2022-08-18T11:03:59;101268.47;;;23.83;93.40
59729;BME280;45588;51.598;5.618;2022-08-18T11:06:26;101262.22;;;23.86;91.67
59729;BME280;45588;51.598;5.618;2022-08-18T11:08:56;101265.81;;;23.83;91.04
59729;BME280;45588;51.598;5.618;2022-08-18T11:11:32;101267.03;;;23.70;88.27
59729;BME280;45588;51.598;5.618;2022-08-18T11:19:15;101256.47;;;23.67;89.94
59729;BME280;45588;51.598;5.618;2022-08-18T11:21:45;101254.69;;;23.66;91.69
59729;BME280;45588;51.598;5.618;2022-08-18T11:24:13;101249.06;;;24.14;91.16
59729;BME280;45588;51.598;5.618;2022-08-18T11:26:44;101232.19;;;23.81;89.26
59729;BME280;45588;51.598;5.618;2022-08-18T11:29:29;101227.16;;;23.68;93.17
59729;BME280;45588;51.598;5.618;2022-08-18T11:32:10;101219.84;;;23.78;91.04
59729;BME280;45588;51.598;5.618;2022-08-18T11:34:43;101223.81;;;23.96;91.98
59729;BME280;45588;51.598;5.618;2022-08-18T11:40:11;101222.28;;;23.87;87.91
59729;BME280;45588;51.598;5.618;2022-08-18T11:42:58;101216.47;;;24.06;90.21
59729;BME280;45588;51.598;5.618;2022-08-18T11:45:28;101208.25;;;24.15;88.32
59729;BME280;45588;51.598;5.618;2022-08-18T11:50:28;101200.53;;;24.68;87.16
59729;BME280;45588;51.598;5.618;2022-08-18T11:52:54;101202.59;;;24.88;83.81
59729;BME280;45588;51.598;5.618;2022-08-18T11:55:31;101194.56;;;25.46;88.41
59729;BME280;45588;51.598;5.618;2022-08-18T11:58:00;101195.69;;;25.65;83.12
59729;BME280;45588;51.598;5.618;2022-08-18T12:03:02;101181.09;;;25.76;83.96
59729;BME280;45588;51.598;5.618;2022-08-18T12:05:28;101184.78;;;25.98;81.24
59729;BME280;45588;51.598;5.618;2022-08-18T12:07:56;101188.38;;;25.97;78.32
59729;BME280;45588;51.598;5.618;2022-08-18T12:10:24;101185.31;;;25.56;76.30
59729;BME280;45588;51.598;5.618;2022-08-18T12:12:53;101188.28;;;25.74;77.45
59729;BME280;45588;51.598;5.618;2022-08-18T12:17:45;101204.28;;;25.20;80.02
59729;BME280;45588;51.598;5.618;2022-08-18T12:20:12;101194.63;;;25.15;80.33
59729;BME280;45588;51.598;5.618;2022-08-18T12:22:39;101191.72;;;24.94;77.88
59729;BME280;45588;51.598;5.618;2022-08-18T12:25:07;101186.00;;;24.78;76.47
59729;BME280;45588;51.598;5.618;2022-08-18T12:27:34;101186.84;;;25.09;82.17
59729;BME280;45588;51.598;5.618;2022-08-18T12:30:00;101186.00;;;25.07;82.03
59729;BME280;45588;51.598;5.618;2022-08-18T12:32:27;101179.13;;;24.99;80.71
59729;BME280;45588;51.598;5.618;2022-08-18T12:34:53;101175.66;;;24.97;83.67
59729;BME280;45588;51.598;5.618;2022-08-18T12:37:22;101191.81;;;25.21;82.82
59729;BME280;45588;51.598;5.618;2022-08-18T12:39:48;101193.03;;;25.09;81.44
59729;BME280;45588;51.598;5.618;2022-08-18T12:42:13;101188.19;;;25.23;80.64
59729;BME280;45588;51.598;5.618;2022-08-18T12:44:39;101193.28;;;25.58;80.41
59729;BME280;45588;51.598;5.618;2022-08-18T12:47:14;101184.97;;;25.40;79.80
59729;BME280;45588;51.598;5.618;2022-08-18T12:49:39;101197.06;;;25.51;73.23
59729;BME280;45588;51.598;5.618;2022-08-18T12:52:06;101202.22;;;25.82;76.72
59729;BME280;45588;51.598;5.618;2022-08-18T12:54:32;101198.22;;;26.20;75.08
59729;BME280;45588;51.598;5.618;2022-08-18T12:56:58;101210.16;;;26.10;71.67
59729;BME280;45588;51.598;5.618;2022-08-18T12:59:24;101206.44;;;25.89;70.26
59729;BME280;45588;51.598;5.618;2022-08-18T13:01:50;101201.16;;;25.61;74.93
59729;BME280;45588;51.598;5.618;2022-08-18T13:04:16;101211.72;;;25.64;74.46
59729;BME280;45588;51.598;5.618;2022-08-18T13:06:53;101219.50;;;25.70;76.49
59729;BME280;45588;51.598;5.618;2022-08-18T13:09:20;101231.97;;;25.69;71.42
59729;BME280;45588;51.598;5.618;2022-08-18T13:11:46;101230.22;;;25.42;69.83
59729;BME280;45588;51.598;5.618;2022-08-18T13:14:11;101235.94;;;25.58;75.43
59729;BME280;45588;51.598;5.618;2022-08-18T13:16:39;101238.56;;;25.59;75.13
59729;BME280;45588;51.598;5.618;2022-08-18T13:19:06;101232.34;;;25.85;76.86
59729;BME280;45588;51.598;5.618;2022-08-18T13:21:32;101241.84;;;25.94;81.12
59729;BME280;45588;51.598;5.618;2022-08-18T13:23:57;101232.00;;;25.96;77.21
59729;BME280;45588;51.598;5.618;2022-08-18T13:26:27;101232.44;;;26.09;78.24
59729;BME280;45588;51.598;5.618;2022-08-18T13:28:53;101230.22;;;26.22;79.14
59729;BME280;45588;51.598;5.618;2022-08-18T13:31:18;101233.06;;;26.16;77.29
59729;BME280;45588;51.598;5.618;2022-08-18T13:33:43;101235.69;;;26.17;77.46
59729;BME280;45588;51.598;5.618;2022-08-18T13:36:08;101234.06;;;26.13;73.87
59729;BME280;45588;51.598;5.618;2022-08-18T13:38:34;101228.19;;;26.03;76.79
59729;BME280;45588;51.598;5.618;2022-08-18T13:41:02;101227.31;;;26.03;75.28
59729;BME280;45588;51.598;5.618;2022-08-18T13:43:34;101229.50;;;25.92;77.86
59729;BME280;45588;51.598;5.618;2022-08-18T13:46:01;101220.66;;;25.89;73.69
59729;BME280;45588;51.598;5.618;2022-08-18T13:48:26;101212.84;;;25.83;79.11
59729;BME280;45588;51.598;5.618;2022-08-18T13:50:53;101212.81;;;25.85;73.72
59729;BME280;45588;51.598;5.618;2022-08-18T13:53:19;101203.09;;;25.82;74.67
59729;BME280;45588;51.598;5.618;2022-08-18T13:55:46;101204.13;;;25.78;73.09
59729;BME280;45588;51.598;5.618;2022-08-18T13:58:12;101193.94;;;25.91;78.69
59729;BME280;45588;51.598;5.618;2022-08-18T14:00:39;101196.16;;;25.77;72.69
59729;BME280;45588;51.598;5.618;2022-08-18T14:03:06;101195.03;;;25.84;73.23
59729;BME280;45588;51.598;5.618;2022-08-18T14:05:33;101203.47;;;25.72;74.18
59729;BME280;45588;51.598;5.618;2022-08-18T14:07:59;101196.69;;;25.61;72.02
59729;BME280;45588;51.598;5.618;2022-08-18T14:10:24;101195.13;;;25.56;73.45
59729;BME280;45588;51.598;5.618;2022-08-18T14:12:53;101204.97;;;25.54;74.72
59729;BME280;45588;51.598;5.618;2022-08-18T14:15:19;101188.03;;;25.28;73.49
59729;BME280;45588;51.598;5.618;2022-08-18T14:17:45;101178.72;;;25.40;74.53
59729;BME280;45588;51.598;5.618;2022-08-18T14:20:10;101175.53;;;25.30;73.92
59729;BME280;45588;51.598;5.618;2022-08-18T14:22:57;101172.06;;;25.26;74.68
59729;BME280;45588;51.598;5.618;2022-08-18T14:25:41;101163.97;;;25.30;75.50
59729;BME280;45588;51.598;5.618;2022-08-18T14:28:25;101165.84;;;25.28;76.37
59729;BME280;45588;51.598;5.618;2022-08-18T14:30:51;101167.72;;;25.51;77.61